sensor_id;sensor_type;location;lat;lon;timestamp;pressure;altitude;pressure_sealevel;temperature;humidity
20620;BME280;10469;42.720;23.252;2024-03-25T00:02:16;93688.69;;;3.47;100.00
20620;BME280;10469;42.720;23.252;2024-03-25T00:04:41;93693.56;;;3.32;100.00
20620;BME280;10469;42.720;23.252;2024-03-25T00:07:07;93690.63;;;3.21;100.00
20620;BME280;10469;42.720;23.252;2024-03-25T00:09:32;93662.94;;;3.17;100.00
20620;BME280;10469;42.720;23.252;2024-03-25T00:11:58;93684.41;;;3.09;100.00
20620;BME280;10469;42.720;23.252;2024-03-25T00:14:24;93671.03;;;3.22;100.00
20620;BME280;10469;42.720;23.252;2024-03-25T00:16:49;93667.06;;;3.32;100.00
20620;BME280;10469;42.720;23.252;2024-03-25T00:19:15;93644.25;;;3.12;100.00
20620;BME280;10469;42.720;23.252;2024-03-25T00:21:41;93665.72;;;3.22;100.00
20620;BME280;10469;42.720;23.252;2024-03-25T00:24:07;93641.09;;;3.22;100.00
20620;BME280;10469;42.720;23.252;2024-03-25T00:26:33;93641.31;;;3.39;100.00
20620;BME280;10469;42.720;23.252;2024-03-25T00:28:59;93645.25;;;3.48;100.00
20620;BME280;10469;42.720;23.252;2024-03-25T00:31:25;93622.31;;;3.23;100.00
20620;BME280;10469;42.720;23.252;2024-03-25T00:33:50;93638.44;;;3.70;100.00
20620;BME280;10469;42.720;23.252;2024-03-25T00:36:16;93639.66;;;3.56;100.00
20620;BME280;10469;42.720;23.252;2024-03-25T00:38:43;93638.31;;;3.65;100.00
20620;BME280;10469;42.720;23.252;2024-03-25T00:41:09;93649.53;;;3.79;100.00
20620;BME280;10469;42.720;23.252;2024-03-25T00:43:34;93644.91;;;3.74;100.00
20620;BME280;10469;42.720;23.252;2024-03-25T00:46:00;93636.25;;;3.67;100.00
20620;BME280;10469;42.720;23.252;2024-03-25T00:48:26;93645.53;;;3.58;100.00
20620;BME280;10469;42.720;23.252;2024-03-25T00:50:51;93648.91;;;3.65;100.00
20620;BME280;10469;42.720;23.252;2024-03-25T00:53:17;93631.53;;;3.69;100.00
20620;BME280;10469;42.720;23.252;2024-03-25T00:55:43;93632.75;;;3.85;100.00
20620;BME280;10469;42.720;23.252;2024-03-25T00:58:09;93623.66;;;3.93;100.00
20620;BME280;10469;42.720;23.252;2024-03-25T01:00:35;93610.06;;;3.89;100.00
20620;BME280;10469;42.720;23.252;2024-03-25T01:03:00;93612.47;;;3.91;100.00
20620;BME280;10469;42.720;23.252;2024-03-25T01:05:26;93611.22;;;4.05;100.00
20620;BME280;10469;42.720;23.252;2024-03-25T01:07:52;93613.59;;;4.25;100.00
20620;BME280;10469;42.720;23.252;2024-03-25T01:10:17;93599.84;;;4.16;100.00
20620;BME280;10469;42.720;23.252;2024-03-25T01:12:43;93590.84;;;4.17;100.00
20620;BME280;10469;42.720;23.252;2024-03-25T01:15:08;93593.53;;;4.29;100.00
20620;BME280;10469;42.720;23.252;2024-03-25T01:17:36;93591.69;;;4.53;100.00
20620;BME280;10469;42.720;23.252;2024-03-25T01:20:02;93574.38;;;4.50;100.00
20620;BME280;10469;42.720;23.252;2024-03-25T01:22:30;93597.69;;;4.72;100.00
20620;BME280;10469;42.720;23.252;2024-03-25T01:24:56;93581.97;;;4.70;100.00
20620;BME280;10469;42.720;23.252;2024-03-25T01:27:22;93592.03;;;4.68;100.00
20620;BME280;10469;42.720;23.252;2024-03-25T01:29:47;93580.50;;;4.63;100.00
20620;BME280;10469;42.720;23.252;2024-03-25T01:32:13;93593.19;;;4.72;100.00
20620;BME280;10469;42.720;23.252;2024-03-25T01:34:38;93601.25;;;4.42;100.00
20620;BME280;10469;42.720;23.252;2024-03-25T01:37:04;93611.38;;;4.10;100.00
20620;BME280;10469;42.720;23.252;2024-03-25T01:39:29;93603.59;;;3.85;100.00
20620;BME280;10469;42.720;23.252;2024-03-25T01:41:55;93622.03;;;3.92;100.00
20620;BME280;10469;42.720;23.252;2024-03-25T01:44:20;93622.91;;;3.74;100.00
20620;BME280;10469;42.720;23.252;2024-03-25T01:46:46;93625.06;;;3.65;100.00
20620;BME280;10469;42.720;23.252;2024-03-25T01:49:12;93616.88;;;3.67;100.00
20620;BME280;10469;42.720;23.252;2024-03-25T01:51:38;93625.25;;;3.52;100.00
20620;BME280;10469;42.720;23.252;2024-03-25T01:54:05;93632.75;;;3.55;100.00
20620;BME280;10469;42.720;23.252;2024-03-25T01:56:33;93630.38;;;3.65;100.00
20620;BME280;10469;42.720;23.252;2024-03-25T01:59:00;93629.47;;;3.41;100.00
20620;BME280;10469;42.720;23.252;2024-03-25T02:01:27;93655.06;;;3.47;100.00
20620;BME280;10469;42.720;23.252;2024-03-25T02:03:55;93655.94;;;3.23;100.00
20620;BME280;10469;42.720;23.252;2024-03-25T02:06:21;93643.81;;;3.34;100.00
20620;BME280;10469;42.720;23.252;2024-03-25T02:08:48;93644.75;;;3.39;100.00
20620;BME280;10469;42.720;23.252;2024-03-25T02:11:15;93658.28;;;3.49;100.00
20620;BME280;10469;42.720;23.252;2024-03-25T02:13:41;93657.19;;;3.39;100.00
20620;BME280;10469;42.720;23.252;2024-03-25T03:28:21;93695.19;;;3.99;100.00
20620;BME280;10469;42.720;23.252;2024-03-25T03:30:46;93693.19;;;3.95;100.00
20620;BME280;10469;42.720;23.252;2024-03-25T03:33:12;93699.94;;;4.09;100.00
20620;BME280;10469;42.720;23.252;2024-03-25T03:35:38;93702.81;;;4.08;100.00
20620;BME280;10469;42.720;23.252;2024-03-25T03:38:03;93694.75;;;4.14;100.00
20620;BME280;10469;42.720;23.252;2024-03-25T03:40:29;93693.56;;;4.28;100.00
20620;BME280;10469;42.720;23.252;2024-03-25T03:42:55;93708.56;;;4.35;100.00
20620;BME280;10469;42.720;23.252;2024-03-25T03:45:24;93721.44;;;4.19;100.00
20620;BME280;10469;42.720;23.252;2024-03-25T03:47:50;93711.03;;;4.60;100.00
20620;BME280;10469;42.720;23.252;2024-03-25T03:50:15;93693.75;;;4.27;100.00
20620;BME280;10469;42.720;23.252;2024-03-25T03:52:41;93705.72;;;4.18;100.00
20620;BME280;10469;42.720;23.252;2024-03-25T03:55:07;93700.06;;;4.14;100.00
20620;BME280;10469;42.720;23.252;2024-03-25T03:57:32;93710.09;;;4.12;100.00
20620;BME280;10469;42.720;23.252;2024-03-25T03:59:58;93712.44;;;3.90;100.00
20620;BME280;10469;42.720;23.252;2024-03-25T04:02:25;93714.41;;;3.95;100.00
20620;BME280;10469;42.720;23.252;2024-03-25T04:04:51;93732.06;;;4.19;100.00
20620;BME280;10469;42.720;23.252;2024-03-25T04:07:16;93732.72;;;4.15;100.00
20620;BME280;10469;42.720;23.252;2024-03-25T04:09:43;93736.88;;;4.22;100.00
20620;BME280;10469;42.720;23.252;2024-03-25T04:12:08;93737.69;;;4.23;100.00
20620;BME280;10469;42.720;23.252;2024-03-25T04:14:34;93739.78;;;4.21;100.00
20620;BME280;10469;42.720;23.252;2024-03-25T04:16:59;93725.47;;;4.22;100.00
20620;BME280;10469;42.720;23.252;2024-03-25T04:19:26;93728.72;;;3.94;100.00
20620;BME280;10469;42.720;23.252;2024-03-25T04:21:55;93740.59;;;4.21;100.00
20620;BME280;10469;42.720;23.252;2024-03-25T04:24:21;93736.41;;;4.14;100.00
20620;BME280;10469;42.720;23.252;2024-03-25T04:26:46;93746.19;;;4.13;100.00
20620;BME280;10469;42.720;23.252;2024-03-25T04:29:14;93757.31;;;4.22;100.00
20620;BME280;10469;42.720;23.252;2024-03-25T04:31:40;93734.03;;;3.94;100.00
20620;BME280;10469;42.720;23.252;2024-03-25T04:34:05;93749.03;;;4.30;100.00
20620;BME280;10469;42.720;23.252;2024-03-25T04:36:31;93747.50;;;4.22;100.00
20620;BME280;10469;42.720;23.252;2024-03-25T04:38:56;93770.81;;;4.20;100.00
20620;BME280;10469;42.720;23.252;2024-03-25T04:41:22;93791.19;;;4.38;100.00
20620;BME280;10469;42.720;23.252;2024-03-25T04:43:48;93798.91;;;4.58;100.00
20620;BME280;10469;42.720;23.252;2024-03-25T04:46:14;93807.16;;;4.50;100.00
20620;BME280;10469;42.720;23.252;2024-03-25T04:48:39;93807.03;;;4.45;100.00
20620;BME280;10469;42.720;23.252;2024-03-25T04:51:05;93765.13;;;4.17;100.00
20620;BME280;10469;42.720;23.252;2024-03-25T04:53:31;93806.38;;;4.49;100.00
20620;BME280;10469;42.720;23.252;2024-03-25T04:55:57;93794.38;;;4.28;100.00
20620;BME280;10469;42.720;23.252;2024-03-25T04:58:23;93810.94;;;4.42;100.00
20620;BME280;10469;42.720;23.252;2024-03-25T05:00:48;93810.50;;;4.45;100.00
20620;BME280;10469;42.720;23.252;2024-03-25T05:03:14;93810.84;;;4.49;100.00
20620;BME280;10469;42.720;23.252;2024-03-25T05:05:39;93795.25;;;4.41;100.00
20620;BME280;10469;42.720;23.252;2024-03-25T05:08:05;93803.25;;;4.52;100.00
20620;BME280;10469;42.720;23.252;2024-03-25T05:10:31;93810.34;;;4.70;100.00
20620;BME280;10469;42.720;23.252;2024-03-25T05:12:56;93796.41;;;4.87;100.00
20620;BME280;10469;42.720;23.252;2024-03-25T05:15:22;93813.06;;;4.52;100.00
20620;BME280;10469;42.720;23.252;2024-03-25T05:17:48;93804.22;;;4.70;100.00
20620;BME280;10469;42.720;23.252;2024-03-25T05:20:13;93812.84;;;4.95;100.00
20620;BME280;10469;42.720;23.252;2024-03-25T05:22:39;93816.47;;;4.71;100.00
20620;BME280;10469;42.720;23.252;2024-03-25T05:25:05;93817.41;;;4.76;100.00
20620;BME280;10469;42.720;23.252;2024-03-25T05:27:31;93810.53;;;4.99;100.00
20620;BME280;10469;42.720;23.252;2024-03-25T05:29:56;93804.22;;;5.12;100.00
20620;BME280;10469;42.720;23.252;2024-03-25T05:32:22;93823.38;;;5.14;100.00
20620;BME280;10469;42.720;23.252;2024-03-25T05:34:47;93827.44;;;5.16;100.00
20620;BME280;10469;42.720;23.252;2024-03-25T05:37:16;93825.06;;;4.85;100.00
20620;BME280;10469;42.720;23.252;2024-03-25T05:39:41;93838.66;;;5.30;100.00
20620;BME280;10469;42.720;23.252;2024-03-25T05:42:07;93835.13;;;4.94;100.00
20620;BME280;10469;42.720;23.252;2024-03-25T05:44:32;93836.91;;;5.12;100.00
20620;BME280;10469;42.720;23.252;2024-03-25T05:46:58;93823.06;;;6.16;100.00
20620;BME280;10469;42.720;23.252;2024-03-25T05:49:23;93839.59;;;6.58;100.00
20620;BME280;10469;42.720;23.252;2024-03-25T05:51:49;93842.59;;;7.36;100.00
20620;BME280;10469;42.720;23.252;2024-03-25T05:54:15;93841.69;;;7.64;100.00
20620;BME280;10469;42.720;23.252;2024-03-25T05:56:40;93849.75;;;8.24;100.00
20620;BME280;10469;42.720;23.252;2024-03-25T05:59:06;93849.00;;;8.90;100.00
20620;BME280;10469;42.720;23.252;2024-03-25T06:01:31;93842.88;;;8.28;100.00
20620;BME280;10469;42.720;23.252;2024-03-25T06:03:57;93843.25;;;7.98;100.00
20620;BME280;10469;42.720;23.252;2024-03-25T06:06:23;93849.31;;;9.85;100.00
20620;BME280;10469;42.720;23.252;2024-03-25T06:08:48;93855.88;;;10.41;100.00
20620;BME280;10469;42.720;23.252;2024-03-25T06:11:16;93850.31;;;10.11;100.00
20620;BME280;10469;42.720;23.252;2024-03-25T06:13:41;93869.53;;;9.70;100.00
20620;BME280;10469;42.720;23.252;2024-03-25T06:16:07;93877.03;;;8.87;100.00
20620;BME280;10469;42.720;23.252;2024-03-25T06:18:32;93866.81;;;9.65;100.00
20620;BME280;10469;42.720;23.252;2024-03-25T06:20:58;93870.91;;;11.20;100.00
20620;BME280;10469;42.720;23.252;2024-03-25T06:23:28;93875.78;;;9.81;100.00
20620;BME280;10469;42.720;23.252;2024-03-25T06:25:55;93876.06;;;10.64;100.00
20620;BME280;10469;42.720;23.252;2024-03-25T06:28:21;93866.88;;;9.70;100.00
20620;BME280;10469;42.720;23.252;2024-03-25T06:30:48;93875.84;;;9.00;100.00
20620;BME280;10469;42.720;23.252;2024-03-25T06:33:32;93876.63;;;8.73;100.00
20620;BME280;10469;42.720;23.252;2024-03-25T06:36:17;93879.47;;;8.28;100.00
20620;BME280;10469;42.720;23.252;2024-03-25T06:38:42;93868.22;;;7.53;100.00
20620;BME280;10469;42.720;23.252;2024-03-25T06:41:08;93884.34;;;7.13;100.00
20620;BME280;10469;42.720;23.252;2024-03-25T06:43:34;93887.78;;;7.93;100.00
20620;BME280;10469;42.720;23.252;2024-03-25T06:46:00;93895.38;;;7.50;100.00
20620;BME280;10469;42.720;23.252;2024-03-25T06:48:25;93904.25;;;8.40;100.00
20620;BME280;10469;42.720;23.252;2024-03-25T06:50:57;93902.88;;;9.85;100.00
20620;BME280;10469;42.720;23.252;2024-03-25T06:53:23;93903.50;;;10.82;100.00
20620;BME280;10469;42.720;23.252;2024-03-25T06:55:53;93897.81;;;12.53;100.00
20620;BME280;10469;42.720;23.252;2024-03-25T06:58:23;93897.22;;;13.86;100.00
20620;BME280;10469;42.720;23.252;2024-03-25T07:00:49;93911.38;;;13.13;100.00
20620;BME280;10469;42.720;23.252;2024-03-25T07:03:16;93902.84;;;12.85;100.00
20620;BME280;10469;42.720;23.252;2024-03-25T07:05:44;93914.47;;;12.55;100.00
20620;BME280;10469;42.720;23.252;2024-03-25T07:08:11;93906.81;;;11.09;100.00
20620;BME280;10469;42.720;23.252;2024-03-25T07:10:36;93913.38;;;9.10;100.00
20620;BME280;10469;42.720;23.252;2024-03-25T07:13:02;93920.91;;;12.64;100.00
20620;BME280;10469;42.720;23.252;2024-03-25T07:15:27;93913.69;;;11.73;100.00
20620;BME280;10469;42.720;23.252;2024-03-25T07:17:53;93911.59;;;12.00;100.00
20620;BME280;10469;42.720;23.252;2024-03-25T07:20:18;93933.00;;;10.34;100.00
20620;BME280;10469;42.720;23.252;2024-03-25T07:22:44;93944.75;;;11.43;100.00
20620;BME280;10469;42.720;23.252;2024-03-25T07:25:10;93932.34;;;13.11;100.00
20620;BME280;10469;42.720;23.252;2024-03-25T07:27:35;93941.94;;;12.06;100.00
20620;BME280;10469;42.720;23.252;2024-03-25T07:30:01;93942.69;;;12.83;100.00
20620;BME280;10469;42.720;23.252;2024-03-25T07:32:27;93944.63;;;12.32;100.00
20620;BME280;10469;42.720;23.252;2024-03-25T07:34:53;93949.09;;;11.44;100.00
20620;BME280;10469;42.720;23.252;2024-03-25T07:37:18;93939.78;;;10.47;100.00
20620;BME280;10469;42.720;23.252;2024-03-25T07:39:46;93946.19;;;10.41;100.00
20620;BME280;10469;42.720;23.252;2024-03-25T07:42:11;93941.41;;;11.89;100.00
20620;BME280;10469;42.720;23.252;2024-03-25T07:44:37;93935.94;;;10.80;100.00
20620;BME280;10469;42.720;23.252;2024-03-25T07:47:03;93943.72;;;11.60;100.00
20620;BME280;10469;42.720;23.252;2024-03-25T07:49:31;93940.81;;;10.09;100.00
20620;BME280;10469;42.720;23.252;2024-03-25T07:52:00;93938.03;;;9.39;100.00
20620;BME280;10469;42.720;23.252;2024-03-25T07:54:25;93958.00;;;9.80;100.00
20620;BME280;10469;42.720;23.252;2024-03-25T07:56:54;93943.56;;;10.51;100.00
20620;BME280;10469;42.720;23.252;2024-03-25T07:59:20;93956.47;;;9.90;100.00
20620;BME280;10469;42.720;23.252;2024-03-25T08:01:45;93972.91;;;9.22;100.00
20620;BME280;10469;42.720;23.252;2024-03-25T08:04:11;93963.44;;;12.21;100.00
20620;BME280;10469;42.720;23.252;2024-03-25T08:06:36;93961.88;;;10.69;100.00
20620;BME280;10469;42.720;23.252;2024-03-25T08:09:02;93965.09;;;9.43;100.00
20620;BME280;10469;42.720;23.252;2024-03-25T08:11:31;93956.78;;;10.68;100.00
20620;BME280;10469;42.720;23.252;2024-03-25T08:13:57;93962.97;;;9.99;100.00
20620;BME280;10469;42.720;23.252;2024-03-25T08:16:23;93968.75;;;12.93;100.00
20620;BME280;10469;42.720;23.252;2024-03-25T08:18:48;93972.56;;;12.61;100.00
20620;BME280;10469;42.720;23.252;2024-03-25T08:21:14;93963.28;;;14.22;94.37
20620;BME280;10469;42.720;23.252;2024-03-25T08:23:39;93957.22;;;15.47;86.04
20620;BME280;10469;42.720;23.252;2024-03-25T08:26:06;93984.72;;;11.35;99.53
20620;BME280;10469;42.720;23.252;2024-03-25T08:28:32;93995.00;;;10.53;100.00
20620;BME280;10469;42.720;23.252;2024-03-25T08:30:58;93982.38;;;11.53;100.00
20620;BME280;10469;42.720;23.252;2024-03-25T08:33:23;93987.75;;;13.92;92.10
20620;BME280;10469;42.720;23.252;2024-03-25T08:35:49;93997.78;;;13.76;91.03
20620;BME280;10469;42.720;23.252;2024-03-25T08:38:15;94003.44;;;10.29;100.00
20620;BME280;10469;42.720;23.252;2024-03-25T08:40:40;94002.75;;;9.36;100.00
20620;BME280;10469;42.720;23.252;2024-03-25T08:43:06;93999.44;;;10.05;100.00
20620;BME280;10469;42.720;23.252;2024-03-25T08:45:32;93999.31;;;8.97;100.00
20620;BME280;10469;42.720;23.252;2024-03-25T08:47:57;93998.88;;;8.83;100.00
20620;BME280;10469;42.720;23.252;2024-03-25T08:50:23;93975.72;;;11.66;100.00
20620;BME280;10469;42.720;23.252;2024-03-25T08:52:49;93988.03;;;13.25;100.00
20620;BME280;10469;42.720;23.252;2024-03-25T08:55:15;94000.53;;;12.29;98.01
20620;BME280;10469;42.720;23.252;2024-03-25T08:57:40;93984.31;;;11.78;100.00
20620;BME280;10469;42.720;23.252;2024-03-25T09:00:06;93998.56;;;11.06;100.00
20620;BME280;10469;42.720;23.252;2024-03-25T09:02:36;93985.47;;;11.15;100.00
20620;BME280;10469;42.720;23.252;2024-03-25T09:05:02;93997.69;;;13.37;95.57
20620;BME280;10469;42.720;23.252;2024-03-25T09:07:31;93986.38;;;13.40;96.24
20620;BME280;10469;42.720;23.252;2024-03-25T09:09:57;94000.56;;;12.40;96.65
20620;BME280;10469;42.720;23.252;2024-03-25T09:12:40;93990.34;;;9.52;100.00
20620;BME280;10469;42.720;23.252;2024-03-25T09:15:06;94006.00;;;10.19;100.00
20620;BME280;10469;42.720;23.252;2024-03-25T09:17:32;93988.03;;;10.52;100.00
20620;BME280;10469;42.720;23.252;2024-03-25T09:19:57;94004.31;;;9.81;100.00
20620;BME280;10469;42.720;23.252;2024-03-25T09:22:23;94019.47;;;8.66;100.00
20620;BME280;10469;42.720;23.252;2024-03-25T09:24:49;94009.84;;;8.65;100.00
20620;BME280;10469;42.720;23.252;2024-03-25T10:02:17;94006.41;;;11.91;97.58
20620;BME280;10469;42.720;23.252;2024-03-25T10:04:48;94011.25;;;12.96;96.14
20620;BME280;10469;42.720;23.252;2024-03-25T10:07:22;94009.69;;;12.28;95.68
20620;BME280;10469;42.720;23.252;2024-03-25T10:09:49;93999.19;;;10.71;100.00
20620;BME280;10469;42.720;23.252;2024-03-25T10:12:14;94014.88;;;10.57;100.00
20620;BME280;10469;42.720;23.252;2024-03-25T10:14:40;94017.50;;;10.84;100.00
20620;BME280;10469;42.720;23.252;2024-03-25T10:17:06;94024.09;;;10.07;100.00
20620;BME280;10469;42.720;23.252;2024-03-25T10:19:33;94009.84;;;10.28;100.00
20620;BME280;10469;42.720;23.252;2024-03-25T10:22:06;94018.41;;;9.05;100.00
20620;BME280;10469;42.720;23.252;2024-03-25T10:24:43;94018.94;;;9.73;100.00
20620;BME280;10469;42.720;23.252;2024-03-25T10:27:22;94023.03;;;9.10;100.00
20620;BME280;10469;42.720;23.252;2024-03-25T10:29:51;94033.72;;;9.54;100.00
20620;BME280;10469;42.720;23.252;2024-03-25T10:32:17;94003.59;;;8.59;100.00
20620;BME280;10469;42.720;23.252;2024-03-25T10:34:43;94029.88;;;9.23;100.00
20620;BME280;10469;42.720;23.252;2024-03-25T10:37:10;94020.03;;;9.50;100.00
20620;BME280;10469;42.720;23.252;2024-03-25T10:39:42;94024.34;;;9.78;100.00
20620;BME280;10469;42.720;23.252;2024-03-25T10:42:12;94020.66;;;9.36;100.00
20620;BME280;10469;42.720;23.252;2024-03-25T10:44:38;93990.91;;;10.40;100.00
20620;BME280;10469;42.720;23.252;2024-03-25T10:47:06;94017.28;;;11.01;99.43
20620;BME280;10469;42.720;23.252;2024-03-25T10:52:21;94026.88;;;8.97;100.00
20620;BME280;10469;42.720;23.252;2024-03-25T10:54:47;94019.84;;;9.35;100.00
20620;BME280;10469;42.720;23.252;2024-03-25T10:57:14;94014.38;;;10.01;100.00
20620;BME280;10469;42.720;23.252;2024-03-25T10:59:42;93996.63;;;11.59;100.00
20620;BME280;10469;42.720;23.252;2024-03-25T11:02:09;94015.59;;;12.56;92.17
20620;BME280;10469;42.720;23.252;2024-03-25T11:04:35;94016.13;;;12.43;92.30
20620;BME280;10469;42.720;23.252;2024-03-25T11:07:12;93999.38;;;13.17;88.90
20620;BME280;10469;42.720;23.252;2024-03-25T11:09:39;94015.63;;;14.11;79.66
20620;BME280;10469;42.720;23.252;2024-03-25T11:12:06;94016.88;;;13.85;82.50
20620;BME280;10469;42.720;23.252;2024-03-25T11:14:31;94017.09;;;11.75;90.77
20620;BME280;10469;42.720;23.252;2024-03-25T11:16:58;94007.91;;;10.24;100.00
20620;BME280;10469;42.720;23.252;2024-03-25T11:19:30;94010.16;;;9.78;100.00
20620;BME280;10469;42.720;23.252;2024-03-25T11:22:08;94024.91;;;8.37;100.00
20620;BME280;10469;42.720;23.252;2024-03-25T11:24:34;94030.13;;;8.99;100.00
20620;BME280;10469;42.720;23.252;2024-03-25T11:27:07;94027.94;;;9.18;100.00
20620;BME280;10469;42.720;23.252;2024-03-25T11:29:34;94037.84;;;10.43;100.00
20620;BME280;10469;42.720;23.252;2024-03-25T11:32:06;94016.91;;;10.13;100.00
20620;BME280;10469;42.720;23.252;2024-03-25T11:34:32;94022.56;;;12.16;100.00
20620;BME280;10469;42.720;23.252;2024-03-25T11:36:57;94031.56;;;11.07;100.00
20620;BME280;10469;42.720;23.252;2024-03-25T11:39:24;94015.34;;;12.22;100.00
20620;BME280;10469;42.720;23.252;2024-03-25T11:41:54;94024.75;;;12.65;97.60
20620;BME280;10469;42.720;23.252;2024-03-25T11:44:20;94023.09;;;11.35;100.00
20620;BME280;10469;42.720;23.252;2024-03-25T11:46:47;94016.81;;;13.40;95.68
20620;BME280;10469;42.720;23.252;2024-03-25T11:49:15;94027.59;;;11.87;93.32
20620;BME280;10469;42.720;23.252;2024-03-25T11:51:43;94037.28;;;10.78;98.53
20620;BME280;10469;42.720;23.252;2024-03-25T11:54:11;94036.41;;;11.67;99.55
20620;BME280;10469;42.720;23.252;2024-03-25T11:56:37;94034.38;;;12.10;95.83
20620;BME280;10469;42.720;23.252;2024-03-25T11:59:06;94042.78;;;11.56;96.50
20620;BME280;10469;42.720;23.252;2024-03-25T12:01:32;94040.38;;;10.60;97.81
20620;BME280;10469;42.720;23.252;2024-03-25T12:04:10;94039.28;;;10.55;100.00
20620;BME280;10469;42.720;23.252;2024-03-25T12:06:35;94050.19;;;9.90;100.00
20620;BME280;10469;42.720;23.252;2024-03-25T12:09:01;94042.81;;;8.70;100.00
20620;BME280;10469;42.720;23.252;2024-03-25T12:11:45;94032.00;;;10.51;100.00
20620;BME280;10469;42.720;23.252;2024-03-25T12:14:11;94022.88;;;12.35;97.94
20620;BME280;10469;42.720;23.252;2024-03-25T12:16:37;94020.69;;;12.42;93.45
20620;BME280;10469;42.720;23.252;2024-03-25T12:19:03;94021.16;;;11.20;97.44
20620;BME280;10469;42.720;23.252;2024-03-25T12:21:31;94032.91;;;10.29;100.00
20620;BME280;10469;42.720;23.252;2024-03-25T12:23:57;94030.72;;;11.01;100.00
20620;BME280;10469;42.720;23.252;2024-03-25T12:26:24;94046.41;;;10.77;100.00
20620;BME280;10469;42.720;23.252;2024-03-25T12:28:49;94021.88;;;10.58;100.00
20620;BME280;10469;42.720;23.252;2024-03-25T12:31:16;94029.88;;;9.94;100.00
20620;BME280;10469;42.720;23.252;2024-03-25T12:33:45;94020.19;;;10.89;100.00
20620;BME280;10469;42.720;23.252;2024-03-25T12:36:13;94023.91;;;10.41;100.00
20620;BME280;10469;42.720;23.252;2024-03-25T12:38:39;94043.50;;;10.46;100.00
20620;BME280;10469;42.720;23.252;2024-03-25T12:41:10;94034.13;;;10.22;97.54
20620;BME280;10469;42.720;23.252;2024-03-25T12:43:41;94038.56;;;10.06;100.00
20620;BME280;10469;42.720;23.252;2024-03-25T12:46:07;94041.00;;;9.37;100.00
20620;BME280;10469;42.720;23.252;2024-03-25T12:48:34;94059.47;;;9.82;100.00
20620;BME280;10469;42.720;23.252;2024-03-25T12:51:00;94073.38;;;9.57;100.00
20620;BME280;10469;42.720;23.252;2024-03-25T12:53:26;94056.50;;;8.74;100.00
20620;BME280;10469;42.720;23.252;2024-03-25T12:55:52;94057.09;;;8.98;100.00
20620;BME280;10469;42.720;23.252;2024-03-25T12:58:18;94044.28;;;9.00;100.00
20620;BME280;10469;42.720;23.252;2024-03-25T13:00:45;94057.56;;;9.34;100.00
20620;BME280;10469;42.720;23.252;2024-03-25T13:03:12;94051.84;;;9.25;100.00
20620;BME280;10469;42.720;23.252;2024-03-25T13:05:38;94054.16;;;9.38;100.00
20620;BME280;10469;42.720;23.252;2024-03-25T13:08:04;94050.84;;;9.80;100.00
20620;BME280;10469;42.720;23.252;2024-03-25T13:10:30;94040.06;;;10.24;100.00
20620;BME280;10469;42.720;23.252;2024-03-25T13:12:56;94044.34;;;10.52;100.00
20620;BME280;10469;42.720;23.252;2024-03-25T13:15:22;94042.81;;;10.02;100.00
20620;BME280;10469;42.720;23.252;2024-03-25T13:17:48;94027.75;;;9.69;100.00
20620;BME280;10469;42.720;23.252;2024-03-25T13:20:14;94046.66;;;10.11;100.00
20620;BME280;10469;42.720;23.252;2024-03-25T13:22:40;94046.34;;;10.35;99.72
20620;BME280;10469;42.720;23.252;2024-03-25T13:25:06;94052.31;;;10.15;99.20
20620;BME280;10469;42.720;23.252;2024-03-25T13:27:32;94049.81;;;10.67;97.74
20620;BME280;10469;42.720;23.252;2024-03-25T13:29:58;94060.88;;;10.76;94.63
20620;BME280;10469;42.720;23.252;2024-03-25T13:32:24;94048.47;;;10.33;91.70
20620;BME280;10469;42.720;23.252;2024-03-25T13:34:51;94057.06;;;10.35;91.52
20620;BME280;10469;42.720;23.252;2024-03-25T13:37:17;94056.91;;;10.46;91.81
20620;BME280;10469;42.720;23.252;2024-03-25T13:39:42;94061.06;;;10.10;90.20
20620;BME280;10469;42.720;23.252;2024-03-25T13:42:08;94057.97;;;9.69;92.46
20620;BME280;10469;42.720;23.252;2024-03-25T13:44:34;94054.63;;;10.06;91.63
20620;BME280;10469;42.720;23.252;2024-03-25T13:47:00;94083.00;;;9.80;93.76
20620;BME280;10469;42.720;23.252;2024-03-25T13:49:25;94072.69;;;9.45;95.29
20620;BME280;10469;42.720;23.252;2024-03-25T13:51:56;94101.03;;;8.51;100.00
20620;BME280;10469;42.720;23.252;2024-03-25T13:54:22;94108.47;;;8.04;100.00
20620;BME280;10469;42.720;23.252;2024-03-25T13:56:47;94113.00;;;8.03;100.00
20620;BME280;10469;42.720;23.252;2024-03-25T13:59:13;94098.56;;;7.88;100.00
20620;BME280;10469;42.720;23.252;2024-03-25T14:01:39;94103.31;;;7.86;100.00
20620;BME280;10469;42.720;23.252;2024-03-25T14:04:05;94117.63;;;8.08;100.00
20620;BME280;10469;42.720;23.252;2024-03-25T14:06:32;94094.50;;;7.85;100.00
20620;BME280;10469;42.720;23.252;2024-03-25T14:09:01;94123.22;;;8.23;100.00
20620;BME280;10469;42.720;23.252;2024-03-25T14:11:29;94121.88;;;8.21;100.00
20620;BME280;10469;42.720;23.252;2024-03-25T14:13:55;94133.09;;;8.23;100.00
20620;BME280;10469;42.720;23.252;2024-03-25T14:16:21;94149.16;;;8.68;100.00
20620;BME280;10469;42.720;23.252;2024-03-25T14:18:46;94146.50;;;8.85;100.00
20620;BME280;10469;42.720;23.252;2024-03-25T14:21:13;94126.63;;;9.37;100.00
20620;BME280;10469;42.720;23.252;2024-03-25T14:23:38;94130.00;;;9.49;100.00
20620;BME280;10469;42.720;23.252;2024-03-25T14:26:17;94122.47;;;9.46;100.00
20620;BME280;10469;42.720;23.252;2024-03-25T14:28:43;94125.69;;;9.26;100.00
20620;BME280;10469;42.720;23.252;2024-03-25T14:31:08;94129.88;;;8.83;100.00
20620;BME280;10469;42.720;23.252;2024-03-25T14:33:34;94128.38;;;8.42;100.00
20620;BME280;10469;42.720;23.252;2024-03-25T14:36:00;94120.22;;;8.48;100.00